createdAt,value
2022-10-23T00:01:28.705Z,28.50
2022-10-23T00:03:58.772Z,29.77
2022-10-23T00:06:26.450Z,27.98
2022-10-23T00:08:53.831Z,29.05
2022-10-23T00:11:26.750Z,28.63
2022-10-23T00:13:56.037Z,30.33
2022-10-23T00:16:23.390Z,27.85
2022-10-23T00:18:50.374Z,29.52
2022-10-23T00:21:18.652Z,28.33
2022-10-23T00:23:46.370Z,28.88
2022-10-23T00:26:17.179Z,28.95
2022-10-23T00:28:46.327Z,28.50
2022-10-23T00:31:13.647Z,28.48
2022-10-23T00:33:41.254Z,30.88
2022-10-23T00:36:10.869Z,30.73
2022-10-23T00:38:38.809Z,30.45
2022-10-23T00:41:07.442Z,31.65
2022-10-23T00:43:36.055Z,34.53
2022-10-23T00:46:03.041Z,33.40
2022-10-23T00:48:30.081Z,31.25
2022-10-23T00:50:57.395Z,32.88
2022-10-23T00:53:25.137Z,37.28
2022-10-23T00:55:55.000Z,40.85
2022-10-23T00:58:22.306Z,41.35
2022-10-23T01:00:52.378Z,41.13
2022-10-23T01:03:23.537Z,39.58
2022-10-23T01:06:11.193Z,39.20
2022-10-23T01:09:03.246Z,38.75
2022-10-23T01:11:42.439Z,37.50
2022-10-23T01:14:23.712Z,35.70
2022-10-23T01:17:17.970Z,34.17
2022-10-23T01:20:19.893Z,33.17
2022-10-23T01:22:53.790Z,32.10
2022-10-23T01:25:38.851Z,30.33
2022-10-23T01:28:11.762Z,31.95
2022-10-23T01:30:44.438Z,32.63
2022-10-23T01:33:36.919Z,30.83
2022-10-23T01:36:10.552Z,30.58
2022-10-23T01:38:56.631Z,31.15
2022-10-23T01:41:30.706Z,31.20
2022-10-23T01:44:11.375Z,31.98
2022-10-23T01:46:39.754Z,31.15
2022-10-23T01:49:11.932Z,32.70
2022-10-23T01:51:42.615Z,34.22
2022-10-23T01:54:12.664Z,33.53
2022-10-23T01:56:44.118Z,32.33
2022-10-23T01:59:16.442Z,32.20
2022-10-23T02:01:47.477Z,34.35
2022-10-23T02:04:19.340Z,32.42
2022-10-23T02:06:46.328Z,31.55
2022-10-23T02:09:14.410Z,31.15
2022-10-23T02:12:09.973Z,32.38
2022-10-23T02:14:49.329Z,31.65
2022-10-23T02:17:28.444Z,33.03
2022-10-23T02:20:08.691Z,33.88
2022-10-23T02:22:42.618Z,35.67
2022-10-23T02:25:16.275Z,35.90
2022-10-23T02:27:53.876Z,34.40
2022-10-23T02:30:24.323Z,35.15
2022-10-23T02:32:59.822Z,32.15
2022-10-23T02:35:26.767Z,34.75
2022-10-23T02:38:02.992Z,35.50
2022-10-23T02:40:41.280Z,36.08
2022-10-23T02:43:20.195Z,35.78
2022-10-23T02:45:56.133Z,37.00
2022-10-23T02:48:30.530Z,37.67
2022-10-23T02:51:12.034Z,37.55
2022-10-23T02:53:49.341Z,38.85
2022-10-23T02:56:38.618Z,36.70
2022-10-23T02:59:21.532Z,37.28
2022-10-23T03:01:56.208Z,34.22
2022-10-23T03:04:26.209Z,35.83
2022-10-23T03:06:53.282Z,34.35
2022-10-23T03:09:20.242Z,35.10
2022-10-23T03:11:47.166Z,34.80
2022-10-23T03:14:14.441Z,35.80
2022-10-23T03:16:41.375Z,34.20
2022-10-23T03:19:09.592Z,34.58
2022-10-23T03:21:37.123Z,31.27
2022-10-23T03:24:08.100Z,31.77
2022-10-23T03:26:40.570Z,29.40
2022-10-23T03:29:07.566Z,28.52
2022-10-23T03:31:40.743Z,29.50
2022-10-23T03:34:11.258Z,29.73
2022-10-23T03:36:40.650Z,29.17
2022-10-23T03:39:08.822Z,29.83
2022-10-23T03:41:35.786Z,31.40
2022-10-23T03:46:35.177Z,32.08
2022-10-23T03:49:02.153Z,29.67
2022-10-23T03:51:29.181Z,28.15
2022-10-23T03:53:57.829Z,29.17
2022-10-23T03:56:24.858Z,29.45
2022-10-23T03:58:51.756Z,27.25
2022-10-23T04:01:18.816Z,27.75
2022-10-23T04:03:46.443Z,30.10
2022-10-23T04:06:15.519Z,31.27
2022-10-23T04:08:46.002Z,31.70
2022-10-23T04:11:15.737Z,32.35
2022-10-23T04:13:46.259Z,30.20
2022-10-23T04:16:15.547Z,33.92
2022-10-23T04:18:44.438Z,29.58
2022-10-23T04:21:12.014Z,31.42
2022-10-23T04:23:39.357Z,27.38
2022-10-23T04:26:12.325Z,31.80
2022-10-23T04:28:39.591Z,29.73
2022-10-23T04:31:06.619Z,30.75
2022-10-23T04:33:33.937Z,32.05
2022-10-23T04:36:01.180Z,32.78
2022-10-23T04:38:28.199Z,34.97
2022-10-23T04:40:55.145Z,33.67
2022-10-23T04:43:23.106Z,31.35
2022-10-23T04:45:50.322Z,32.28
2022-10-23T04:48:17.863Z,30.25
2022-10-23T04:51:20.099Z,26.73
2022-10-23T04:54:12.885Z,27.13
2022-10-23T04:56:42.566Z,28.02
2022-10-23T04:59:14.840Z,26.45
2022-10-23T05:01:42.580Z,28.00
2022-10-23T05:04:09.933Z,29.02
2022-10-23T05:06:59.705Z,27.92
2022-10-23T05:09:45.267Z,36.83
2022-10-23T05:12:23.046Z,33.00
2022-10-23T05:14:50.011Z,44.78
2022-10-23T05:17:37.627Z,26.90
2022-10-23T05:20:09.867Z,26.85
2022-10-23T05:22:41.572Z,29.10
2022-10-23T05:25:11.350Z,27.73
2022-10-23T05:27:41.256Z,25.60
2022-10-23T05:30:11.992Z,25.55
2022-10-23T05:32:39.416Z,27.00
2022-10-23T05:35:19.616Z,28.63
2022-10-23T05:37:51.070Z,27.95
2022-10-23T05:40:21.605Z,27.88
2022-10-23T05:42:51.122Z,28.58
2022-10-23T05:45:21.784Z,28.63
2022-10-23T05:48:34.677Z,28.70
2022-10-23T05:51:23.024Z,28.20
2022-10-23T05:54:13.464Z,27.73
2022-10-23T05:57:02.295Z,25.80
2022-10-23T06:02:25.900Z,26.58
2022-10-23T06:04:59.230Z,27.30
2022-10-23T06:07:59.690Z,25.52
2022-10-23T06:10:27.497Z,25.05
2022-10-23T06:12:57.367Z,26.35
2022-10-23T06:15:26.450Z,26.77
2022-10-23T06:18:05.463Z,27.33
2022-10-23T06:20:37.378Z,26.85
2022-10-23T06:23:18.119Z,29.85
2022-10-23T06:26:07.769Z,27.33
2022-10-23T06:28:48.600Z,29.67
2022-10-23T06:31:16.768Z,29.08
2022-10-23T06:33:43.655Z,29.38
2022-10-23T06:36:10.960Z,30.95
2022-10-23T06:38:40.954Z,29.55
2022-10-23T06:41:14.337Z,29.85
2022-10-23T06:43:41.819Z,30.25
2022-10-23T06:46:19.019Z,27.20
2022-10-23T06:49:05.896Z,28.98
2022-10-23T06:51:38.916Z,26.25
2022-10-23T06:54:11.831Z,26.92
2022-10-23T06:56:51.359Z,25.77
2022-10-23T06:59:22.580Z,24.80
2022-10-23T07:01:51.890Z,23.70
2022-10-23T07:04:19.027Z,22.73
2022-10-23T07:06:46.130Z,24.35
2022-10-23T07:09:13.284Z,23.92
2022-10-23T07:11:52.396Z,23.80
2022-10-23T07:14:23.429Z,22.65
2022-10-23T07:16:50.494Z,22.80
2022-10-23T07:19:17.591Z,22.67
2022-10-23T07:22:09.727Z,24.08
2022-10-23T07:24:44.760Z,23.83
2022-10-23T07:27:18.998Z,23.80
2022-10-23T07:29:52.626Z,21.95
2022-10-23T07:32:19.724Z,24.30
2022-10-23T07:40:18.867Z,22.60
2022-10-23T07:42:45.905Z,21.90
2022-10-23T07:45:13.563Z,22.42
2022-10-23T07:47:43.534Z,22.80
2022-10-23T07:50:13.111Z,22.02
2022-10-23T07:52:39.978Z,22.42
2022-10-23T07:55:16.563Z,23.00
2022-10-23T07:57:49.951Z,24.33
2022-10-23T08:03:13.649Z,26.00
2022-10-23T08:05:41.159Z,25.00
2022-10-23T08:08:09.060Z,25.13
2022-10-23T08:10:38.609Z,25.98
2022-10-23T08:13:13.087Z,26.67
2022-10-23T08:15:53.408Z,27.38
2022-10-23T08:18:52.861Z,24.60
2022-10-23T08:21:20.167Z,26.60
2022-10-23T08:23:49.189Z,27.10
2022-10-23T08:26:16.412Z,26.85
2022-10-23T08:28:43.329Z,25.85
2022-10-23T08:31:16.529Z,22.98
2022-10-23T08:33:56.736Z,23.25
2022-10-23T08:36:26.322Z,26.13
2022-10-23T08:38:55.479Z,24.50
2022-10-23T08:41:47.798Z,26.13
2022-10-23T08:44:21.331Z,25.17
2022-10-23T08:46:56.042Z,25.98
2022-10-23T08:49:50.151Z,23.25
2022-10-23T08:52:25.783Z,23.98
2022-10-23T08:55:04.764Z,19.33
2022-10-23T08:57:40.048Z,20.02
2022-10-23T09:00:15.124Z,18.42
2022-10-23T09:02:48.186Z,19.52
2022-10-23T09:05:30.717Z,18.70
2022-10-23T09:08:08.694Z,18.23
2022-10-23T09:10:46.019Z,17.75
2022-10-23T09:13:34.901Z,19.67
2022-10-23T09:16:28.108Z,16.38
2022-10-23T09:18:56.021Z,18.13
2022-10-23T09:21:29.070Z,16.85
2022-10-23T09:23:57.048Z,16.90
2022-10-23T09:26:23.976Z,17.42
2022-10-23T09:29:01.430Z,18.52
2022-10-23T09:31:28.378Z,18.58
2022-10-23T09:34:01.296Z,18.15
2022-10-23T09:36:29.638Z,18.17
2022-10-23T09:39:01.677Z,18.13
2022-10-23T09:41:38.576Z,18.33
2022-10-23T09:44:08.561Z,20.40
2022-10-23T09:46:43.102Z,20.80
2022-10-23T09:49:28.206Z,19.75
2022-10-23T09:51:59.902Z,21.08
2022-10-23T09:54:29.189Z,21.15
2022-10-23T09:57:03.561Z,22.30
2022-10-23T09:59:32.363Z,20.58
2022-10-23T10:02:01.729Z,20.48
2022-10-23T10:04:59.466Z,19.27
2022-10-23T10:07:31.139Z,19.65
2022-10-23T10:10:00.551Z,17.65
2022-10-23T10:12:39.402Z,16.92
2022-10-23T10:15:44.905Z,15.90
2022-10-23T10:18:19.508Z,16.33
2022-10-23T10:20:52.737Z,15.90
2022-10-23T10:23:33.357Z,13.10
2022-10-23T10:26:10.018Z,13.48
2022-10-23T10:28:42.490Z,12.02
2022-10-23T10:31:19.644Z,11.05
2022-10-23T10:34:14.631Z,10.80
2022-10-23T10:37:03.067Z,10.68
2022-10-23T10:40:20.376Z,9.75
2022-10-23T10:43:10.865Z,10.20
2022-10-23T10:55:15.187Z,10.68
2022-10-23T10:57:46.703Z,9.82
2022-10-23T11:00:14.719Z,10.10
2022-10-23T11:02:48.715Z,10.43
2022-10-23T11:05:25.775Z,9.52
2022-10-23T11:07:57.067Z,8.70
2022-10-23T11:10:24.375Z,9.63
2022-10-23T11:12:52.070Z,9.07
2022-10-23T11:15:25.916Z,11.35
2022-10-23T11:17:58.992Z,9.80
2022-10-23T11:20:51.242Z,10.07
2022-10-23T11:23:42.995Z,9.50
2022-10-23T11:26:16.221Z,10.07
2022-10-23T11:28:48.869Z,9.17
2022-10-23T11:31:46.422Z,9.23
2022-10-23T11:34:58.199Z,9.40
2022-10-23T11:37:26.925Z,9.85
2022-10-23T11:40:13.830Z,9.80
2022-10-23T11:42:41.024Z,9.75
2022-10-23T11:45:29.984Z,8.95
2022-10-23T11:48:35.247Z,8.52
2022-10-23T11:51:05.236Z,8.77
2022-10-23T11:53:32.389Z,8.77
2022-10-23T11:56:02.224Z,9.45
2022-10-23T11:58:42.489Z,10.25
2022-10-23T12:01:41.177Z,8.95
2022-10-23T12:04:14.043Z,9.05
2022-10-23T12:06:45.567Z,9.13
2022-10-23T12:09:45.304Z,8.98
2022-10-23T12:12:12.211Z,9.20
2022-10-23T12:14:40.643Z,10.68
2022-10-23T12:17:32.685Z,10.82
2022-10-23T12:20:12.498Z,12.48
2022-10-23T12:23:01.088Z,9.68
2022-10-23T12:25:57.180Z,9.98
2022-10-23T12:28:48.926Z,13.93
2022-10-23T12:31:45.566Z,12.35
2022-10-23T12:34:55.300Z,10.85
2022-10-23T12:37:42.923Z,10.30
2022-10-23T12:40:10.915Z,9.57
2022-10-23T12:42:38.472Z,9.30
2022-10-23T12:45:25.077Z,10.00
2022-10-23T12:47:52.922Z,9.45
2022-10-23T12:50:25.414Z,10.32
2022-10-23T12:52:53.176Z,9.80
2022-10-23T12:55:20.689Z,10.20
2022-10-23T12:57:47.934Z,10.55
2022-10-23T13:00:18.681Z,10.60
2022-10-23T13:02:45.993Z,10.05
2022-10-23T13:05:19.766Z,8.70
2022-10-23T13:07:48.457Z,8.85
2022-10-23T13:10:21.367Z,8.93
2022-10-23T13:13:02.746Z,9.70
2022-10-23T13:15:44.139Z,9.55
2022-10-23T13:18:14.557Z,8.98
2022-10-23T13:21:03.305Z,8.85
2022-10-23T13:23:33.377Z,9.57
2022-10-23T13:26:18.680Z,8.68
2022-10-23T13:28:46.446Z,8.13
2022-10-23T13:31:13.353Z,9.52
2022-10-23T13:33:44.179Z,9.70
2022-10-23T13:36:13.820Z,9.32
2022-10-23T13:38:42.040Z,9.77
2022-10-23T13:41:16.515Z,9.75
2022-10-23T13:43:44.670Z,10.77
2022-10-23T13:46:21.185Z,10.05
2022-10-23T13:48:48.615Z,10.60
2022-10-23T13:51:22.591Z,9.75
2022-10-23T13:53:50.138Z,10.18
2022-10-23T13:56:19.511Z,9.93
2022-10-23T13:58:46.593Z,10.43
2022-10-23T14:01:24.954Z,11.27
2022-10-23T14:03:53.371Z,11.48
2022-10-23T14:06:20.401Z,10.90
2022-10-23T14:08:47.410Z,12.38
2022-10-23T14:11:16.696Z,9.98
2022-10-23T14:13:43.759Z,11.32
2022-10-23T14:16:13.545Z,10.55
2022-10-23T14:18:40.893Z,10.18
2022-10-23T14:21:09.561Z,10.32
2022-10-23T14:23:36.588Z,10.40
2022-10-23T14:26:12.426Z,11.13
2022-10-23T14:28:39.562Z,11.17
2022-10-23T14:31:08.522Z,12.40
2022-10-23T14:33:35.655Z,12.07
2022-10-23T14:36:02.997Z,11.57
2022-10-23T14:38:29.932Z,12.40
2022-10-23T14:40:56.953Z,13.20
2022-10-23T14:43:24.618Z,12.20
2022-10-23T14:45:52.309Z,12.48
2022-10-23T14:48:19.326Z,11.90
2022-10-23T14:50:48.355Z,11.90
2022-10-23T14:53:16.216Z,12.65
2022-10-23T14:55:43.113Z,12.73
2022-10-23T14:58:10.103Z,11.90
2022-10-23T15:00:37.040Z,12.68
2022-10-23T15:03:03.987Z,12.20
2022-10-23T15:05:30.927Z,12.43
2022-10-23T15:07:59.152Z,12.63
2022-10-23T15:10:26.162Z,11.60
2022-10-23T15:12:53.080Z,9.77
2022-10-23T15:15:20.020Z,10.63
2022-10-23T15:17:46.896Z,10.38
2022-10-23T15:20:13.818Z,11.07
2022-10-23T15:22:40.868Z,11.15
2022-10-23T15:25:08.418Z,9.90
2022-10-23T15:27:35.398Z,9.73
2022-10-23T15:30:02.540Z,11.73
2022-10-23T15:32:29.547Z,12.40
2022-10-23T15:34:58.352Z,16.00
2022-10-23T15:37:25.328Z,18.17
2022-10-23T15:39:52.517Z,16.70
2022-10-23T15:42:19.571Z,17.98
2022-10-23T15:44:47.139Z,21.50
2022-10-23T15:47:14.189Z,15.02
2022-10-23T15:49:41.228Z,12.60
2022-10-23T15:54:37.785Z,12.48
2022-10-23T15:57:05.007Z,13.15
2022-10-23T15:59:32.445Z,15.63
2022-10-23T16:01:59.899Z,15.25
2022-10-23T16:04:28.707Z,17.17
2022-10-23T16:06:55.742Z,18.30
2022-10-23T16:09:22.699Z,19.88
2022-10-23T16:11:49.632Z,22.77
2022-10-23T16:14:17.623Z,29.42
2022-10-23T16:16:44.796Z,30.48
2022-10-23T16:19:12.561Z,27.52
2022-10-23T16:21:39.947Z,24.52
2022-10-23T16:24:08.332Z,22.48
2022-10-23T16:26:36.654Z,26.17
2022-10-23T16:29:06.297Z,29.55
2022-10-23T16:31:33.793Z,32.88
2022-10-23T16:34:02.111Z,27.15
2022-10-23T16:36:29.776Z,26.85
2022-10-23T16:39:07.532Z,31.70
2022-10-23T16:41:53.390Z,32.08
2022-10-23T16:44:21.055Z,33.55
2022-10-23T16:47:00.590Z,33.92
2022-10-23T16:49:29.915Z,31.73
2022-10-23T16:51:56.861Z,24.02
2022-10-23T16:54:23.850Z,18.25
2022-10-23T16:56:50.920Z,18.80
2022-10-23T16:59:17.875Z,17.25
2022-10-23T17:01:45.107Z,15.77
2022-10-23T17:04:12.061Z,15.68
2022-10-23T17:06:39.146Z,14.75
2022-10-23T17:09:06.205Z,19.05
2022-10-23T17:11:36.035Z,19.63
2022-10-23T17:14:08.800Z,19.85
2022-10-23T17:16:40.399Z,19.73
2022-10-23T17:19:20.547Z,20.25
2022-10-23T17:21:55.561Z,22.27
2022-10-23T17:24:23.257Z,17.00
2022-10-23T17:26:50.514Z,15.63
2022-10-23T17:29:18.502Z,16.15
2022-10-23T17:31:47.982Z,18.45
2022-10-23T17:34:18.270Z,19.20
2022-10-23T17:36:48.179Z,18.05
2022-10-23T17:39:17.580Z,18.20
2022-10-23T17:41:45.268Z,19.70
2022-10-23T17:44:12.602Z,19.45
2022-10-23T17:46:39.595Z,20.63
2022-10-23T17:49:06.885Z,20.80
2022-10-23T17:51:35.712Z,17.98
2022-10-23T17:54:05.743Z,14.80
2022-10-23T17:56:34.044Z,16.27
2022-10-23T17:59:04.568Z,20.00
2022-10-23T18:01:32.059Z,16.65
2022-10-23T18:04:05.614Z,16.10
2022-10-23T18:06:36.895Z,17.40
2022-10-23T18:09:05.493Z,15.63
2022-10-23T18:11:35.655Z,15.57
2022-10-23T18:14:03.731Z,14.25
2022-10-23T18:16:30.758Z,15.07
2022-10-23T18:19:00.550Z,17.65
2022-10-23T18:21:28.132Z,19.13
2022-10-23T18:23:55.290Z,21.88
2022-10-23T18:26:26.486Z,19.55
2022-10-23T18:28:59.382Z,20.60
2022-10-23T18:31:30.449Z,22.50
2022-10-23T18:33:59.174Z,20.48
2022-10-23T18:36:28.941Z,20.35
2022-10-23T18:41:28.190Z,22.10
2022-10-23T18:43:55.280Z,17.10
2022-10-23T18:46:22.472Z,18.90
2022-10-23T18:48:52.754Z,17.88
2022-10-23T18:51:29.872Z,15.82
2022-10-23T18:53:57.749Z,17.35
2022-10-23T18:56:26.796Z,17.70
2022-10-23T18:58:58.230Z,18.45
2022-10-23T19:01:27.348Z,17.10
2022-10-23T19:06:23.830Z,16.50
2022-10-23T19:08:51.217Z,16.73
2022-10-23T19:11:21.307Z,17.17
2022-10-23T19:13:48.427Z,16.88
2022-10-23T19:16:18.221Z,18.02
2022-10-23T19:18:53.606Z,18.75
2022-10-23T19:21:24.415Z,16.77
2022-10-23T19:23:52.543Z,17.27
2022-10-23T19:26:19.825Z,17.05
2022-10-23T19:28:49.109Z,17.58
2022-10-23T19:31:16.341Z,18.33
2022-10-23T19:33:43.497Z,19.33
2022-10-23T19:36:14.108Z,17.83
2022-10-23T19:38:42.311Z,16.20
2022-10-23T19:41:09.972Z,18.13
2022-10-23T19:43:37.992Z,17.20
2022-10-23T19:46:09.403Z,19.65
2022-10-23T19:48:42.577Z,17.13
2022-10-23T19:51:09.725Z,16.40
2022-10-23T19:53:36.832Z,16.30
2022-10-23T19:56:06.675Z,20.02
2022-10-23T19:58:34.118Z,21.13
2022-10-23T20:01:08.862Z,22.25
2022-10-23T20:03:36.023Z,26.33
2022-10-23T20:06:03.313Z,25.65
2022-10-23T20:08:32.753Z,33.70
2022-10-23T20:11:02.125Z,27.00
2022-10-23T20:13:29.075Z,22.85
2022-10-23T20:15:56.049Z,33.88
2022-10-23T20:18:23.030Z,35.80
2022-10-23T20:20:49.966Z,30.27
2022-10-23T20:23:16.968Z,32.15
2022-10-23T20:25:44.028Z,33.00
2022-10-23T20:28:14.262Z,26.15
2022-10-23T20:30:44.151Z,27.85
2022-10-23T20:33:11.100Z,29.50
2022-10-23T20:35:42.723Z,23.95
2022-10-23T20:38:10.261Z,24.10
2022-10-23T20:40:37.490Z,26.92
2022-10-23T20:43:04.492Z,27.77
2022-10-23T20:45:31.487Z,31.25
2022-10-23T20:47:58.402Z,30.38
2022-10-23T20:50:25.392Z,31.08
2022-10-23T20:52:52.455Z,32.08
2022-10-23T20:55:20.009Z,31.92
2022-10-23T20:57:47.362Z,20.02
2022-10-23T21:00:15.736Z,21.35
2022-10-23T21:02:45.766Z,26.73
2022-10-23T21:05:14.307Z,34.35
2022-10-23T21:07:41.177Z,37.38
2022-10-23T21:10:08.401Z,34.28
2022-10-23T21:12:35.371Z,34.33
2022-10-23T21:15:02.273Z,33.80
2022-10-23T21:17:35.886Z,37.28
2022-10-23T21:20:03.284Z,35.05
2022-10-23T21:22:30.283Z,25.73
2022-10-23T21:24:58.572Z,22.95
2022-10-23T21:27:25.870Z,23.17
2022-10-23T21:29:52.767Z,27.88
2022-10-23T21:32:20.962Z,29.10
2022-10-23T21:34:47.914Z,32.55
2022-10-23T21:37:15.216Z,34.30
2022-10-23T21:39:43.270Z,27.67
2022-10-23T21:42:12.184Z,22.88
2022-10-23T21:44:39.096Z,22.15
2022-10-23T21:47:06.064Z,22.90
2022-10-23T21:49:33.098Z,20.67
2022-10-23T21:52:01.615Z,24.10
2022-10-23T21:54:29.201Z,26.70
2022-10-23T21:56:56.766Z,33.90
2022-10-23T21:59:29.982Z,34.17
2022-10-23T22:01:59.935Z,30.73
2022-10-23T22:04:27.774Z,25.40
2022-10-23T22:06:55.453Z,25.65
2022-10-23T22:09:23.730Z,26.08
2022-10-23T22:11:53.445Z,25.80
2022-10-23T22:14:21.333Z,25.23
2022-10-23T22:16:48.753Z,25.73
2022-10-23T22:19:17.444Z,27.52
2022-10-23T22:21:44.714Z,28.08
2022-10-23T22:24:12.446Z,26.45
2022-10-23T22:26:42.918Z,26.63
2022-10-23T22:29:14.211Z,27.63
2022-10-23T22:31:44.232Z,25.63
2022-10-23T22:34:26.677Z,28.65
2022-10-23T22:37:01.051Z,28.10
2022-10-23T22:39:27.969Z,27.02
2022-10-23T22:41:54.914Z,27.25
2022-10-23T22:44:21.924Z,30.60
2022-10-23T22:46:48.932Z,28.75
2022-10-23T22:49:16.605Z,25.92
2022-10-23T22:51:43.586Z,26.75
2022-10-23T22:54:10.635Z,27.67
2022-10-23T22:56:37.602Z,27.88
2022-10-23T22:59:05.141Z,27.77
2022-10-23T23:01:41.512Z,27.17
2022-10-23T23:04:26.081Z,28.95
2022-10-23T23:06:55.497Z,30.35
2022-10-23T23:09:22.426Z,27.35
2022-10-23T23:11:52.807Z,29.23
2022-10-23T23:14:23.725Z,28.42
2022-10-23T23:16:53.285Z,29.25
2022-10-23T23:19:23.027Z,27.95
2022-10-23T23:21:50.593Z,29.10
2022-10-23T23:24:17.474Z,30.55
2022-10-23T23:26:44.403Z,29.80
2022-10-23T23:29:11.704Z,28.95
2022-10-23T23:31:38.715Z,30.10
2022-10-23T23:34:05.653Z,29.02
2022-10-23T23:36:33.984Z,29.58
2022-10-23T23:39:01.469Z,29.35
2022-10-23T23:41:29.177Z,28.38
2022-10-23T23:43:57.977Z,30.45
2022-10-23T23:46:25.766Z,28.85
2022-10-23T23:48:52.716Z,23.58
2022-10-23T23:51:22.328Z,22.00
2022-10-23T23:53:50.140Z,21.67
2022-10-23T23:56:18.108Z,22.80
2022-10-23T23:58:45.073Z,21.75
